sensor_id;sensor_type;location;lat;lon;timestamp;temperature;humidity
318;DHT22;146;53.448;10.228;2023-06-10T00:00:33;15.60;1.00
318;DHT22;146;53.448;10.228;2023-06-10T00:03:06;15.50;1.00
318;DHT22;146;53.448;10.228;2023-06-10T00:05:40;15.50;1.00
318;DHT22;146;53.448;10.228;2023-06-10T00:08:07;15.50;1.00
318;DHT22;146;53.448;10.228;2023-06-10T00:10:38;15.40;1.00
318;DHT22;146;53.448;10.228;2023-06-10T00:13:07;15.40;1.00
318;DHT22;146;53.448;10.228;2023-06-10T00:15:34;15.30;1.00
318;DHT22;146;53.448;10.228;2023-06-10T00:18:07;15.10;1.00
318;DHT22;146;53.448;10.228;2023-06-10T00:20:35;15.10;1.00
318;DHT22;146;53.448;10.228;2023-06-10T00:23:03;15.00;1.00
318;DHT22;146;53.448;10.228;2023-06-10T00:25:35;15.00;1.00
318;DHT22;146;53.448;10.228;2023-06-10T00:28:03;15.00;1.00
318;DHT22;146;53.448;10.228;2023-06-10T00:30:33;14.90;1.00
318;DHT22;146;53.448;10.228;2023-06-10T00:33:00;14.90;1.00
318;DHT22;146;53.448;10.228;2023-06-10T00:35:26;14.80;1.00
318;DHT22;146;53.448;10.228;2023-06-10T00:37:56;14.80;1.00
318;DHT22;146;53.448;10.228;2023-06-10T00:40:26;14.80;1.00
318;DHT22;146;53.448;10.228;2023-06-10T00:42:53;14.80;1.00
318;DHT22;146;53.448;10.228;2023-06-10T00:45:21;14.70;1.00
318;DHT22;146;53.448;10.228;2023-06-10T00:47:48;14.70;1.00
318;DHT22;146;53.448;10.228;2023-06-10T00:50:27;14.70;1.00
318;DHT22;146;53.448;10.228;2023-06-10T00:52:54;14.60;1.00
318;DHT22;146;53.448;10.228;2023-06-10T00:55:24;14.60;1.00
318;DHT22;146;53.448;10.228;2023-06-10T00:57:55;14.70;1.00
318;DHT22;146;53.448;10.228;2023-06-10T01:00:23;14.60;1.00
318;DHT22;146;53.448;10.228;2023-06-10T01:02:53;14.50;1.00
318;DHT22;146;53.448;10.228;2023-06-10T01:05:23;14.40;1.00
318;DHT22;146;53.448;10.228;2023-06-10T01:07:58;14.40;1.00
318;DHT22;146;53.448;10.228;2023-06-10T01:10:30;14.40;1.00
318;DHT22;146;53.448;10.228;2023-06-10T01:13:02;14.40;1.00
318;DHT22;146;53.448;10.228;2023-06-10T01:15:35;14.40;1.00
318;DHT22;146;53.448;10.228;2023-06-10T01:18:03;14.40;1.00
318;DHT22;146;53.448;10.228;2023-06-10T01:20:34;14.40;1.00
318;DHT22;146;53.448;10.228;2023-06-10T01:23:10;14.50;1.00
318;DHT22;146;53.448;10.228;2023-06-10T01:25:51;14.30;1.00
318;DHT22;146;53.448;10.228;2023-06-10T01:28:44;14.40;1.00
318;DHT22;146;53.448;10.228;2023-06-10T01:31:28;14.40;1.00
318;DHT22;146;53.448;10.228;2023-06-10T01:33:59;14.40;1.00
318;DHT22;146;53.448;10.228;2023-06-10T01:36:31;14.40;1.00
318;DHT22;146;53.448;10.228;2023-06-10T01:39:11;14.30;1.00
318;DHT22;146;53.448;10.228;2023-06-10T01:41:47;14.20;1.00
318;DHT22;146;53.448;10.228;2023-06-10T01:44:17;14.20;1.00
318;DHT22;146;53.448;10.228;2023-06-10T01:46:50;14.10;1.00
318;DHT22;146;53.448;10.228;2023-06-10T01:49:19;14.10;1.00
318;DHT22;146;53.448;10.228;2023-06-10T01:51:50;14.10;1.00
318;DHT22;146;53.448;10.228;2023-06-10T01:54:21;14.10;1.00
318;DHT22;146;53.448;10.228;2023-06-10T01:56:48;14.10;1.00
318;DHT22;146;53.448;10.228;2023-06-10T01:59:15;14.00;1.00
318;DHT22;146;53.448;10.228;2023-06-10T02:01:42;13.90;1.00
318;DHT22;146;53.448;10.228;2023-06-10T02:04:08;13.90;1.00
318;DHT22;146;53.448;10.228;2023-06-10T02:06:35;13.70;1.00
318;DHT22;146;53.448;10.228;2023-06-10T02:09:03;13.70;1.00
318;DHT22;146;53.448;10.228;2023-06-10T02:11:34;13.60;1.00
318;DHT22;146;53.448;10.228;2023-06-10T02:14:04;13.50;1.00
318;DHT22;146;53.448;10.228;2023-06-10T02:16:31;13.50;1.00
318;DHT22;146;53.448;10.228;2023-06-10T02:19:03;13.40;1.00
318;DHT22;146;53.448;10.228;2023-06-10T02:21:38;13.30;1.00
318;DHT22;146;53.448;10.228;2023-06-10T02:24:12;13.30;1.00
318;DHT22;146;53.448;10.228;2023-06-10T02:26:42;13.20;1.00
318;DHT22;146;53.448;10.228;2023-06-10T02:29:09;13.20;1.00
318;DHT22;146;53.448;10.228;2023-06-10T02:31:38;13.20;1.00
318;DHT22;146;53.448;10.228;2023-06-10T02:34:12;13.10;1.00
318;DHT22;146;53.448;10.228;2023-06-10T02:36:41;13.20;1.00
318;DHT22;146;53.448;10.228;2023-06-10T02:39:10;13.20;1.00
318;DHT22;146;53.448;10.228;2023-06-10T02:41:48;13.30;1.00
318;DHT22;146;53.448;10.228;2023-06-10T02:44:18;13.40;1.00
318;DHT22;146;53.448;10.228;2023-06-10T02:46:48;13.40;1.00
318;DHT22;146;53.448;10.228;2023-06-10T02:49:17;13.50;1.00
318;DHT22;146;53.448;10.228;2023-06-10T02:51:44;13.50;1.00
318;DHT22;146;53.448;10.228;2023-06-10T02:54:17;13.50;1.00
318;DHT22;146;53.448;10.228;2023-06-10T02:56:51;13.50;1.00
318;DHT22;146;53.448;10.228;2023-06-10T02:59:21;13.50;1.00
318;DHT22;146;53.448;10.228;2023-06-10T03:01:49;13.50;1.00
318;DHT22;146;53.448;10.228;2023-06-10T03:04:16;13.40;1.00
318;DHT22;146;53.448;10.228;2023-06-10T03:07:05;13.50;1.00
318;DHT22;146;53.448;10.228;2023-06-10T03:09:38;13.40;1.00
318;DHT22;146;53.448;10.228;2023-06-10T03:12:12;13.50;1.00
318;DHT22;146;53.448;10.228;2023-06-10T03:14:48;13.40;1.00
318;DHT22;146;53.448;10.228;2023-06-10T03:17:20;13.50;1.00
318;DHT22;146;53.448;10.228;2023-06-10T03:19:47;13.40;1.00
318;DHT22;146;53.448;10.228;2023-06-10T03:22:17;13.40;1.00
318;DHT22;146;53.448;10.228;2023-06-10T03:24:43;13.40;1.00
318;DHT22;146;53.448;10.228;2023-06-10T03:27:19;13.30;1.00
318;DHT22;146;53.448;10.228;2023-06-10T03:29:45;13.40;1.00
318;DHT22;146;53.448;10.228;2023-06-10T03:32:12;13.30;1.00
318;DHT22;146;53.448;10.228;2023-06-10T03:34:43;13.30;1.00
318;DHT22;146;53.448;10.228;2023-06-10T03:37:14;13.30;1.00
318;DHT22;146;53.448;10.228;2023-06-10T03:39:47;13.30;1.00
318;DHT22;146;53.448;10.228;2023-06-10T03:42:21;13.30;1.00
318;DHT22;146;53.448;10.228;2023-06-10T03:44:48;13.30;1.00
318;DHT22;146;53.448;10.228;2023-06-10T03:47:20;13.30;1.00
318;DHT22;146;53.448;10.228;2023-06-10T03:49:56;13.30;1.00
318;DHT22;146;53.448;10.228;2023-06-10T03:52:23;13.30;1.00
318;DHT22;146;53.448;10.228;2023-06-10T03:54:50;13.30;1.00
318;DHT22;146;53.448;10.228;2023-06-10T03:57:16;13.30;1.00
318;DHT22;146;53.448;10.228;2023-06-10T03:59:47;13.30;1.00
318;DHT22;146;53.448;10.228;2023-06-10T04:02:16;13.30;1.00
318;DHT22;146;53.448;10.228;2023-06-10T04:04:43;13.30;1.00
318;DHT22;146;53.448;10.228;2023-06-10T04:07:16;13.30;1.00
318;DHT22;146;53.448;10.228;2023-06-10T04:09:47;13.30;1.00
318;DHT22;146;53.448;10.228;2023-06-10T04:12:17;13.40;1.00
318;DHT22;146;53.448;10.228;2023-06-10T04:14:47;13.40;1.00
318;DHT22;146;53.448;10.228;2023-06-10T04:17:17;13.40;1.00
318;DHT22;146;53.448;10.228;2023-06-10T04:19:43;13.30;1.00
318;DHT22;146;53.448;10.228;2023-06-10T04:22:16;13.40;1.00
318;DHT22;146;53.448;10.228;2023-06-10T04:24:52;13.40;1.00
318;DHT22;146;53.448;10.228;2023-06-10T04:27:21;13.50;1.00
318;DHT22;146;53.448;10.228;2023-06-10T04:29:57;13.50;1.00
318;DHT22;146;53.448;10.228;2023-06-10T04:32:33;13.50;1.00
318;DHT22;146;53.448;10.228;2023-06-10T07:40:05;16.90;1.00
318;DHT22;146;53.448;10.228;2023-06-10T07:42:36;16.90;1.00
318;DHT22;146;53.448;10.228;2023-06-10T07:45:03;17.00;1.00
318;DHT22;146;53.448;10.228;2023-06-10T07:47:32;17.10;1.00
318;DHT22;146;53.448;10.228;2023-06-10T07:49:59;17.20;1.00
318;DHT22;146;53.448;10.228;2023-06-10T07:52:36;17.30;1.00
318;DHT22;146;53.448;10.228;2023-06-10T07:55:14;17.40;1.00
318;DHT22;146;53.448;10.228;2023-06-10T07:57:41;17.60;1.00
318;DHT22;146;53.448;10.228;2023-06-10T08:00:10;17.70;1.00
318;DHT22;146;53.448;10.228;2023-06-10T08:02:46;17.70;1.00
318;DHT22;146;53.448;10.228;2023-06-10T08:05:27;17.80;1.00
318;DHT22;146;53.448;10.228;2023-06-10T08:07:55;18.00;1.00
318;DHT22;146;53.448;10.228;2023-06-10T08:10:23;18.00;1.00
318;DHT22;146;53.448;10.228;2023-06-10T08:12:56;18.20;1.00
318;DHT22;146;53.448;10.228;2023-06-10T08:15:23;18.20;1.00
318;DHT22;146;53.448;10.228;2023-06-10T08:17:50;18.20;1.00
318;DHT22;146;53.448;10.228;2023-06-10T08:20:17;18.30;1.00
318;DHT22;146;53.448;10.228;2023-06-10T08:22:47;18.40;1.00
318;DHT22;146;53.448;10.228;2023-06-10T08:25:27;18.50;1.00
318;DHT22;146;53.448;10.228;2023-06-10T08:27:57;18.50;1.00
318;DHT22;146;53.448;10.228;2023-06-10T08:30:29;18.60;1.00
318;DHT22;146;53.448;10.228;2023-06-10T08:32:56;18.60;1.00
318;DHT22;146;53.448;10.228;2023-06-10T08:35:23;18.70;1.00
318;DHT22;146;53.448;10.228;2023-06-10T08:37:53;18.70;1.00
318;DHT22;146;53.448;10.228;2023-06-10T08:40:20;18.80;1.00
318;DHT22;146;53.448;10.228;2023-06-10T08:42:56;18.80;1.00
318;DHT22;146;53.448;10.228;2023-06-10T08:45:42;19.00;1.00
318;DHT22;146;53.448;10.228;2023-06-10T08:48:22;19.00;1.00
318;DHT22;146;53.448;10.228;2023-06-10T08:50:50;19.10;1.00
318;DHT22;146;53.448;10.228;2023-06-10T08:53:25;19.20;1.00
318;DHT22;146;53.448;10.228;2023-06-10T08:55:59;19.20;1.00
318;DHT22;146;53.448;10.228;2023-06-10T08:58:28;19.20;1.00
318;DHT22;146;53.448;10.228;2023-06-10T09:00:56;19.30;1.00
318;DHT22;146;53.448;10.228;2023-06-10T09:03:25;19.30;1.00
318;DHT22;146;53.448;10.228;2023-06-10T09:05:52;19.40;1.00
318;DHT22;146;53.448;10.228;2023-06-10T09:08:33;19.50;1.00
318;DHT22;146;53.448;10.228;2023-06-10T09:11:01;19.70;1.00
318;DHT22;146;53.448;10.228;2023-06-10T09:13:32;19.70;1.00
318;DHT22;146;53.448;10.228;2023-06-10T09:16:08;19.80;1.00
318;DHT22;146;53.448;10.228;2023-06-10T09:18:40;19.90;1.00
318;DHT22;146;53.448;10.228;2023-06-10T09:21:07;20.00;1.00
318;DHT22;146;53.448;10.228;2023-06-10T09:23:46;20.00;1.00
318;DHT22;146;53.448;10.228;2023-06-10T09:26:28;20.20;1.00
318;DHT22;146;53.448;10.228;2023-06-10T09:29:03;20.30;1.00
318;DHT22;146;53.448;10.228;2023-06-10T09:31:30;20.30;1.00
318;DHT22;146;53.448;10.228;2023-06-10T09:34:05;20.40;1.00
318;DHT22;146;53.448;10.228;2023-06-10T09:36:33;20.50;1.00
318;DHT22;146;53.448;10.228;2023-06-10T09:39:03;20.50;1.00
318;DHT22;146;53.448;10.228;2023-06-10T09:41:45;20.70;1.00
318;DHT22;146;53.448;10.228;2023-06-10T09:44:16;20.80;1.00
318;DHT22;146;53.448;10.228;2023-06-10T09:46:56;20.80;1.00
318;DHT22;146;53.448;10.228;2023-06-10T09:49:33;20.90;1.00
318;DHT22;146;53.448;10.228;2023-06-10T09:52:05;21.00;1.00
318;DHT22;146;53.448;10.228;2023-06-10T09:54:44;21.00;1.00
318;DHT22;146;53.448;10.228;2023-06-10T09:57:24;21.00;1.00
318;DHT22;146;53.448;10.228;2023-06-10T09:59:58;21.20;1.00
318;DHT22;146;53.448;10.228;2023-06-10T10:02:29;21.20;1.00
318;DHT22;146;53.448;10.228;2023-06-10T10:05:02;21.30;1.00
318;DHT22;146;53.448;10.228;2023-06-10T10:07:29;21.30;1.00
318;DHT22;146;53.448;10.228;2023-06-10T10:09:56;21.50;1.00
318;DHT22;146;53.448;10.228;2023-06-10T10:12:23;21.60;1.00
318;DHT22;146;53.448;10.228;2023-06-10T10:14:51;21.60;1.00
318;DHT22;146;53.448;10.228;2023-06-10T10:17:26;21.70;1.00
318;DHT22;146;53.448;10.228;2023-06-10T10:20:08;21.70;1.00
318;DHT22;146;53.448;10.228;2023-06-10T10:22:38;21.80;1.00
318;DHT22;146;53.448;10.228;2023-06-10T10:25:10;21.90;1.00
318;DHT22;146;53.448;10.228;2023-06-10T10:27:44;22.10;1.00
318;DHT22;146;53.448;10.228;2023-06-10T10:30:14;22.20;1.00
318;DHT22;146;53.448;10.228;2023-06-10T10:32:57;22.30;1.00
318;DHT22;146;53.448;10.228;2023-06-10T10:35:25;22.30;1.00
318;DHT22;146;53.448;10.228;2023-06-10T10:37:53;22.30;1.00
318;DHT22;146;53.448;10.228;2023-06-10T10:40:27;22.40;1.00
318;DHT22;146;53.448;10.228;2023-06-10T10:43:03;22.50;1.00
318;DHT22;146;53.448;10.228;2023-06-10T10:45:36;22.50;1.00
318;DHT22;146;53.448;10.228;2023-06-10T10:48:09;22.60;1.00
318;DHT22;146;53.448;10.228;2023-06-10T10:50:39;22.80;1.00
318;DHT22;146;53.448;10.228;2023-06-10T10:53:12;22.90;1.00
318;DHT22;146;53.448;10.228;2023-06-10T10:56:12;22.90;1.00
318;DHT22;146;53.448;10.228;2023-06-10T10:58:42;22.90;1.00
318;DHT22;146;53.448;10.228;2023-06-10T11:01:25;23.00;1.00
318;DHT22;146;53.448;10.228;2023-06-10T11:04:08;23.00;1.00
318;DHT22;146;53.448;10.228;2023-06-10T11:06:35;23.20;1.00
318;DHT22;146;53.448;10.228;2023-06-10T11:09:25;23.30;1.00
318;DHT22;146;53.448;10.228;2023-06-10T11:11:53;23.50;1.00
318;DHT22;146;53.448;10.228;2023-06-10T11:14:29;23.60;1.00
318;DHT22;146;53.448;10.228;2023-06-10T11:16:58;23.60;1.00
318;DHT22;146;53.448;10.228;2023-06-10T11:19:48;23.70;1.00
318;DHT22;146;53.448;10.228;2023-06-10T11:22:24;23.90;1.00
318;DHT22;146;53.448;10.228;2023-06-10T11:24:52;23.90;1.00
318;DHT22;146;53.448;10.228;2023-06-10T11:27:25;23.80;1.00
318;DHT22;146;53.448;10.228;2023-06-10T11:30:17;23.80;1.00
318;DHT22;146;53.448;10.228;2023-06-10T11:32:51;23.90;1.00
318;DHT22;146;53.448;10.228;2023-06-10T11:35:23;24.00;1.00
318;DHT22;146;53.448;10.228;2023-06-10T11:37:50;24.10;1.00
318;DHT22;146;53.448;10.228;2023-06-10T11:40:17;24.20;1.00
318;DHT22;146;53.448;10.228;2023-06-10T11:42:44;24.20;1.00
318;DHT22;146;53.448;10.228;2023-06-10T11:45:15;24.30;1.00
318;DHT22;146;53.448;10.228;2023-06-10T11:47:55;24.30;1.00
318;DHT22;146;53.448;10.228;2023-06-10T11:50:31;24.40;1.00
318;DHT22;146;53.448;10.228;2023-06-10T11:52:58;24.30;1.00
318;DHT22;146;53.448;10.228;2023-06-10T11:55:25;24.40;1.00
318;DHT22;146;53.448;10.228;2023-06-10T11:57:52;24.40;1.00
318;DHT22;146;53.448;10.228;2023-06-10T12:00:23;24.50;1.00
318;DHT22;146;53.448;10.228;2023-06-10T12:02:55;24.70;1.00
318;DHT22;146;53.448;10.228;2023-06-10T12:05:26;24.70;1.00
318;DHT22;146;53.448;10.228;2023-06-10T12:08:11;24.80;1.00
318;DHT22;146;53.448;10.228;2023-06-10T12:10:42;24.90;1.00
318;DHT22;146;53.448;10.228;2023-06-10T12:13:09;24.90;1.00
318;DHT22;146;53.448;10.228;2023-06-10T12:15:37;24.90;1.00
318;DHT22;146;53.448;10.228;2023-06-10T12:18:23;25.00;1.00
318;DHT22;146;53.448;10.228;2023-06-10T12:20:55;25.10;1.00
318;DHT22;146;53.448;10.228;2023-06-10T12:23:32;25.10;1.00
318;DHT22;146;53.448;10.228;2023-06-10T12:26:02;25.20;1.00
318;DHT22;146;53.448;10.228;2023-06-10T12:28:35;25.20;1.00
318;DHT22;146;53.448;10.228;2023-06-10T12:31:14;25.30;1.00
318;DHT22;146;53.448;10.228;2023-06-10T12:33:46;25.30;1.00
318;DHT22;146;53.448;10.228;2023-06-10T12:36:16;25.40;1.00
318;DHT22;146;53.448;10.228;2023-06-10T12:38:47;25.40;1.00
318;DHT22;146;53.448;10.228;2023-06-10T12:41:23;25.50;1.00
318;DHT22;146;53.448;10.228;2023-06-10T12:43:59;25.50;1.00
318;DHT22;146;53.448;10.228;2023-06-10T12:46:36;25.50;1.00
318;DHT22;146;53.448;10.228;2023-06-10T12:49:03;25.60;1.00
318;DHT22;146;53.448;10.228;2023-06-10T12:51:30;25.70;1.00
318;DHT22;146;53.448;10.228;2023-06-10T12:53:58;25.70;1.00
318;DHT22;146;53.448;10.228;2023-06-10T12:56:37;25.80;1.00
318;DHT22;146;53.448;10.228;2023-06-10T12:59:04;25.90;1.00
318;DHT22;146;53.448;10.228;2023-06-10T13:01:34;25.90;1.00
318;DHT22;146;53.448;10.228;2023-06-10T13:04:01;25.90;1.00
318;DHT22;146;53.448;10.228;2023-06-10T13:06:38;25.90;1.00
318;DHT22;146;53.448;10.228;2023-06-10T13:09:07;25.90;1.00
318;DHT22;146;53.448;10.228;2023-06-10T13:11:34;25.90;1.00
318;DHT22;146;53.448;10.228;2023-06-10T13:14:02;25.90;1.00
318;DHT22;146;53.448;10.228;2023-06-10T13:16:35;26.00;1.00
318;DHT22;146;53.448;10.228;2023-06-10T13:19:04;26.00;1.00
318;DHT22;146;53.448;10.228;2023-06-10T13:21:35;25.90;1.00
318;DHT22;146;53.448;10.228;2023-06-10T13:24:14;25.90;1.00
318;DHT22;146;53.448;10.228;2023-06-10T13:26:46;25.90;1.00
318;DHT22;146;53.448;10.228;2023-06-10T13:29:16;26.00;1.00
318;DHT22;146;53.448;10.228;2023-06-10T13:31:51;26.10;1.00
318;DHT22;146;53.448;10.228;2023-06-10T13:34:20;26.10;1.00
318;DHT22;146;53.448;10.228;2023-06-10T13:36:47;26.20;1.00
318;DHT22;146;53.448;10.228;2023-06-10T13:39:18;26.30;1.00
318;DHT22;146;53.448;10.228;2023-06-10T13:41:46;26.30;1.00
318;DHT22;146;53.448;10.228;2023-06-10T13:44:12;26.40;1.00
318;DHT22;146;53.448;10.228;2023-06-10T13:46:42;26.40;1.00
318;DHT22;146;53.448;10.228;2023-06-10T13:49:12;26.50;1.00
318;DHT22;146;53.448;10.228;2023-06-10T13:51:39;26.40;1.00
318;DHT22;146;53.448;10.228;2023-06-10T13:54:11;26.50;1.00
318;DHT22;146;53.448;10.228;2023-06-10T13:56:41;26.60;1.00
318;DHT22;146;53.448;10.228;2023-06-10T13:59:10;26.50;1.00
318;DHT22;146;53.448;10.228;2023-06-10T14:01:44;26.40;1.00
318;DHT22;146;53.448;10.228;2023-06-10T14:04:14;26.40;1.00
318;DHT22;146;53.448;10.228;2023-06-10T14:06:41;26.50;1.00
318;DHT22;146;53.448;10.228;2023-06-10T14:09:16;26.60;1.00
318;DHT22;146;53.448;10.228;2023-06-10T14:11:46;26.70;1.00
318;DHT22;146;53.448;10.228;2023-06-10T14:14:20;26.80;1.00
318;DHT22;146;53.448;10.228;2023-06-10T14:16:47;26.80;1.00
318;DHT22;146;53.448;10.228;2023-06-10T14:19:17;26.80;1.00
318;DHT22;146;53.448;10.228;2023-06-10T14:21:44;26.80;1.00
318;DHT22;146;53.448;10.228;2023-06-10T14:24:12;26.70;1.00
318;DHT22;146;53.448;10.228;2023-06-10T14:26:39;26.70;1.00
318;DHT22;146;53.448;10.228;2023-06-10T14:29:11;26.50;1.00
318;DHT22;146;53.448;10.228;2023-06-10T14:31:41;26.30;1.00
318;DHT22;146;53.448;10.228;2023-06-10T14:34:09;26.20;1.00
318;DHT22;146;53.448;10.228;2023-06-10T14:36:48;26.20;1.00
318;DHT22;146;53.448;10.228;2023-06-10T14:39:18;26.20;1.00
318;DHT22;146;53.448;10.228;2023-06-10T14:41:45;26.20;1.00
318;DHT22;146;53.448;10.228;2023-06-10T14:44:13;26.20;1.00
318;DHT22;146;53.448;10.228;2023-06-10T14:46:40;26.20;1.00
318;DHT22;146;53.448;10.228;2023-06-10T14:49:07;26.10;1.00
318;DHT22;146;53.448;10.228;2023-06-10T14:51:34;26.10;1.00
318;DHT22;146;53.448;10.228;2023-06-10T14:54:03;26.10;1.00
318;DHT22;146;53.448;10.228;2023-06-10T14:56:56;26.00;1.00
318;DHT22;146;53.448;10.228;2023-06-10T15:06:39;25.90;1.00
318;DHT22;146;53.448;10.228;2023-06-10T15:09:07;25.90;1.00
318;DHT22;146;53.448;10.228;2023-06-10T15:11:37;25.90;1.00
318;DHT22;146;53.448;10.228;2023-06-10T15:14:13;25.90;1.00
318;DHT22;146;53.448;10.228;2023-06-10T15:16:50;25.80;1.00
318;DHT22;146;53.448;10.228;2023-06-10T15:19:43;25.90;1.00
318;DHT22;146;53.448;10.228;2023-06-10T15:22:14;25.90;1.00
318;DHT22;146;53.448;10.228;2023-06-10T15:25:19;25.90;1.00
318;DHT22;146;53.448;10.228;2023-06-10T15:27:46;25.90;1.00
318;DHT22;146;53.448;10.228;2023-06-10T15:30:13;25.90;1.00
318;DHT22;146;53.448;10.228;2023-06-10T15:32:40;25.90;1.00
318;DHT22;146;53.448;10.228;2023-06-10T15:35:12;26.00;1.00
318;DHT22;146;53.448;10.228;2023-06-10T15:37:46;25.90;1.00
318;DHT22;146;53.448;10.228;2023-06-10T15:40:17;25.90;1.00
318;DHT22;146;53.448;10.228;2023-06-10T15:42:44;25.90;1.00
318;DHT22;146;53.448;10.228;2023-06-10T15:45:32;25.90;1.00
318;DHT22;146;53.448;10.228;2023-06-10T15:48:47;25.90;1.00
318;DHT22;146;53.448;10.228;2023-06-10T15:51:27;25.70;1.00
318;DHT22;146;53.448;10.228;2023-06-10T15:54:02;25.60;1.00
318;DHT22;146;53.448;10.228;2023-06-10T15:57:00;25.50;1.00
318;DHT22;146;53.448;10.228;2023-06-10T15:59:29;25.60;1.00
318;DHT22;146;53.448;10.228;2023-06-10T16:02:01;25.70;1.00
318;DHT22;146;53.448;10.228;2023-06-10T16:04:41;25.70;1.00
318;DHT22;146;53.448;10.228;2023-06-10T16:07:32;25.60;1.00
318;DHT22;146;53.448;10.228;2023-06-10T16:10:07;25.60;1.00
318;DHT22;146;53.448;10.228;2023-06-10T16:12:42;25.60;1.00
318;DHT22;146;53.448;10.228;2023-06-10T16:26:05;25.60;1.00
318;DHT22;146;53.448;10.228;2023-06-10T16:28:32;25.50;1.00
318;DHT22;146;53.448;10.228;2023-06-10T16:30:59;25.50;1.00
318;DHT22;146;53.448;10.228;2023-06-10T16:33:32;25.50;1.00
318;DHT22;146;53.448;10.228;2023-06-10T16:36:03;25.50;1.00
318;DHT22;146;53.448;10.228;2023-06-10T16:38:32;25.50;1.00
318;DHT22;146;53.448;10.228;2023-06-10T16:41:03;25.60;1.00
318;DHT22;146;53.448;10.228;2023-06-10T16:43:32;25.50;1.00
318;DHT22;146;53.448;10.228;2023-06-10T16:46:10;25.60;1.00
318;DHT22;146;53.448;10.228;2023-06-10T16:48:37;25.60;1.00
318;DHT22;146;53.448;10.228;2023-06-10T16:51:06;25.60;1.00
318;DHT22;146;53.448;10.228;2023-06-10T16:53:33;25.50;1.00
318;DHT22;146;53.448;10.228;2023-06-10T16:56:05;25.50;1.00
318;DHT22;146;53.448;10.228;2023-06-10T16:58:34;25.50;1.00
318;DHT22;146;53.448;10.228;2023-06-10T17:01:05;25.50;1.00
318;DHT22;146;53.448;10.228;2023-06-10T17:03:35;25.50;1.00
318;DHT22;146;53.448;10.228;2023-06-10T17:06:09;25.40;1.00
318;DHT22;146;53.448;10.228;2023-06-10T17:08:36;25.40;1.00
318;DHT22;146;53.448;10.228;2023-06-10T17:11:04;25.30;1.00
318;DHT22;146;53.448;10.228;2023-06-10T17:13:37;25.40;1.00
318;DHT22;146;53.448;10.228;2023-06-10T17:16:04;25.40;1.00
318;DHT22;146;53.448;10.228;2023-06-10T17:18:37;25.60;1.00
318;DHT22;146;53.448;10.228;2023-06-10T17:21:04;25.70;1.00
318;DHT22;146;53.448;10.228;2023-06-10T17:23:39;25.80;1.00
318;DHT22;146;53.448;10.228;2023-06-10T17:26:17;25.90;1.00
318;DHT22;146;53.448;10.228;2023-06-10T17:28:44;26.00;1.00
318;DHT22;146;53.448;10.228;2023-06-10T17:34:47;26.00;1.00
318;DHT22;146;53.448;10.228;2023-06-10T17:37:20;25.70;1.00
318;DHT22;146;53.448;10.228;2023-06-10T17:39:53;25.60;1.00
318;DHT22;146;53.448;10.228;2023-06-10T17:42:21;25.70;1.00
318;DHT22;146;53.448;10.228;2023-06-10T17:44:48;25.60;1.00
318;DHT22;146;53.448;10.228;2023-06-10T17:47:17;25.40;1.00
318;DHT22;146;53.448;10.228;2023-06-10T17:49:44;25.10;1.00
318;DHT22;146;53.448;10.228;2023-06-10T17:52:23;25.00;1.00
318;DHT22;146;53.448;10.228;2023-06-10T17:54:50;24.70;1.00
318;DHT22;146;53.448;10.228;2023-06-10T17:57:23;24.50;1.00
318;DHT22;146;53.448;10.228;2023-06-10T17:59:50;24.50;1.00
318;DHT22;146;53.448;10.228;2023-06-10T18:02:23;24.30;1.00
318;DHT22;146;53.448;10.228;2023-06-10T18:04:50;24.10;1.00
318;DHT22;146;53.448;10.228;2023-06-10T18:07:23;23.90;1.00
318;DHT22;146;53.448;10.228;2023-06-10T18:09:49;23.90;1.00
318;DHT22;146;53.448;10.228;2023-06-10T18:12:16;23.80;1.00
318;DHT22;146;53.448;10.228;2023-06-10T18:14:44;23.70;1.00
318;DHT22;146;53.448;10.228;2023-06-10T18:17:17;23.60;1.00
318;DHT22;146;53.448;10.228;2023-06-10T18:19:44;23.60;1.00
318;DHT22;146;53.448;10.228;2023-06-10T18:22:23;23.40;1.00
318;DHT22;146;53.448;10.228;2023-06-10T18:24:50;23.40;1.00
318;DHT22;146;53.448;10.228;2023-06-10T18:27:20;23.30;1.00
318;DHT22;146;53.448;10.228;2023-06-10T18:29:51;23.20;1.00
318;DHT22;146;53.448;10.228;2023-06-10T18:32:20;23.20;1.00
318;DHT22;146;53.448;10.228;2023-06-10T18:34:47;23.10;1.00
318;DHT22;146;53.448;10.228;2023-06-10T18:37:16;23.10;1.00
318;DHT22;146;53.448;10.228;2023-06-10T18:39:46;23.10;1.00
318;DHT22;146;53.448;10.228;2023-06-10T18:42:13;23.00;1.00
318;DHT22;146;53.448;10.228;2023-06-10T18:44:43;22.90;1.00
318;DHT22;146;53.448;10.228;2023-06-10T18:47:12;22.90;1.00
318;DHT22;146;53.448;10.228;2023-06-10T18:49:39;22.80;1.00
318;DHT22;146;53.448;10.228;2023-06-10T18:52:12;22.80;1.00
318;DHT22;146;53.448;10.228;2023-06-10T18:54:38;22.80;1.00
318;DHT22;146;53.448;10.228;2023-06-10T18:57:09;22.80;1.00
318;DHT22;146;53.448;10.228;2023-06-10T18:59:39;22.90;1.00
318;DHT22;146;53.448;10.228;2023-06-10T19:02:08;22.90;1.00
318;DHT22;146;53.448;10.228;2023-06-10T19:04:38;22.80;1.00
318;DHT22;146;53.448;10.228;2023-06-10T19:07:05;22.80;1.00
318;DHT22;146;53.448;10.228;2023-06-10T19:09:41;22.80;1.00
318;DHT22;146;53.448;10.228;2023-06-10T19:12:14;22.70;1.00
318;DHT22;146;53.448;10.228;2023-06-10T19:14:41;22.80;1.00
318;DHT22;146;53.448;10.228;2023-06-10T19:17:15;22.80;1.00
318;DHT22;146;53.448;10.228;2023-06-10T19:19:46;22.70;1.00
318;DHT22;146;53.448;10.228;2023-06-10T19:22:13;22.70;1.00
318;DHT22;146;53.448;10.228;2023-06-10T19:24:57;22.60;1.00
318;DHT22;146;53.448;10.228;2023-06-10T19:27:30;22.60;1.00
318;DHT22;146;53.448;10.228;2023-06-10T19:29:57;22.50;1.00
318;DHT22;146;53.448;10.228;2023-06-10T19:32:37;22.50;1.00
318;DHT22;146;53.448;10.228;2023-06-10T19:35:23;22.50;1.00
318;DHT22;146;53.448;10.228;2023-06-10T19:37:50;22.40;1.00
318;DHT22;146;53.448;10.228;2023-06-10T19:40:23;22.40;1.00
318;DHT22;146;53.448;10.228;2023-06-10T19:42:50;22.40;1.00
318;DHT22;146;53.448;10.228;2023-06-10T19:45:20;22.30;1.00
318;DHT22;146;53.448;10.228;2023-06-10T19:47:49;22.30;1.00
318;DHT22;146;53.448;10.228;2023-06-10T19:50:16;22.30;1.00
318;DHT22;146;53.448;10.228;2023-06-10T19:52:46;22.30;1.00
318;DHT22;146;53.448;10.228;2023-06-10T19:55:13;22.30;1.00
318;DHT22;146;53.448;10.228;2023-06-10T19:57:40;22.40;1.00
318;DHT22;146;53.448;10.228;2023-06-10T20:00:08;22.30;1.00
318;DHT22;146;53.448;10.228;2023-06-10T20:02:38;22.30;1.00
318;DHT22;146;53.448;10.228;2023-06-10T20:05:11;22.30;1.00
318;DHT22;146;53.448;10.228;2023-06-10T20:07:37;22.30;1.00
318;DHT22;146;53.448;10.228;2023-06-10T20:10:20;22.30;1.00
318;DHT22;146;53.448;10.228;2023-06-10T20:12:50;22.30;1.00
318;DHT22;146;53.448;10.228;2023-06-10T20:15:19;22.20;1.00
318;DHT22;146;53.448;10.228;2023-06-10T20:17:46;22.20;1.00
318;DHT22;146;53.448;10.228;2023-06-10T20:20:16;22.20;1.00
318;DHT22;146;53.448;10.228;2023-06-10T20:22:49;22.10;1.00
318;DHT22;146;53.448;10.228;2023-06-10T20:25:20;22.00;1.00
318;DHT22;146;53.448;10.228;2023-06-10T20:27:47;22.00;1.00
318;DHT22;146;53.448;10.228;2023-06-10T20:30:22;21.80;1.00